Time;durP1;ratioP1;P1;durP2;ratioP2;P2;SDS_P1;SDS_P2;PMS_P1;PMS_P2;Temp;Humidity;BMP_temperature;BMP_pressure;BME280_temperature;BME280_humidity;BME280_pressure;Samples;Min_cycle;Max_cycle;Signal;HPM_P1;HPM_P2
2022/04/06 00:00:40;;;;;;;20.60;13.63;;;;;;;;;;6270680;28;20079;-70
2022/04/06 00:03:44;;;;;;;30.35;18.65;;;;;;;;;;6270189;28;20895;-69
2022/04/06 00:06:45;;;;;;;34.03;19.88;;;;;;;;;;6271019;28;20072;-70
2022/04/06 00:09:47;;;;;;;38.35;21.05;;;;;;;;;;6271933;28;20124;-69
2022/04/06 00:12:48;;;;;;;42.22;26.55;;;;;;;;;;6270544;28;20751;-70
2022/04/06 00:15:50;;;;;;;40.50;25.70;;;;;;;;;;6271140;28;20091;-70
2022/04/06 00:18:53;;;;;;;37.95;25.40;;;;;;;;;;6268995;28;20045;-70
2022/04/06 00:21:55;;;;;;;42.05;26.92;;;;;;;;;;6271582;28;20056;-70
2022/04/06 00:24:58;;;;;;;41.40;28.08;;;;;;;;;;6270914;28;20083;-70
2022/04/06 00:27:59;;;;;;;41.30;27.57;;;;;;;;;;6270673;28;20175;-70
2022/04/06 00:31:02;;;;;;;44.63;29.35;;;;;;;;;;6270615;28;20171;-70
2022/04/06 00:34:05;;;;;;;41.17;26.67;;;;;;;;;;6270785;28;20455;-69
2022/04/06 00:37:06;;;;;;;44.63;28.27;;;;;;;;;;6270846;28;20175;-70
2022/04/06 00:40:09;;;;;;;45.60;30.00;;;;;;;;;;6270246;28;20082;-70
2022/04/06 00:43:12;;;;;;;44.25;28.85;;;;;;;;;;6270452;28;20049;-70
2022/04/06 00:46:14;;;;;;;40.50;27.80;;;;;;;;;;6270108;28;20048;-70
2022/04/06 00:49:17;;;;;;;44.45;30.13;;;;;;;;;;6270441;28;20075;-70
2022/04/06 00:52:18;;;;;;;47.63;28.52;;;;;;;;;;6268064;28;20485;-70
2022/04/06 00:55:20;;;;;;;42.95;29.23;;;;;;;;;;6270128;28;20064;-70
2022/04/06 00:58:22;;;;;;;45.53;30.02;;;;;;;;;;6270803;28;20044;-70
2022/04/06 01:01:23;;;;;;;50.80;31.45;;;;;;;;;;6269849;28;20072;-70
2022/04/06 01:04:26;;;;;;;45.88;30.70;;;;;;;;;;6269099;28;20068;-70
2022/04/06 01:07:28;;;;;;;44.55;29.52;;;;;;;;;;6266821;28;20048;-70
2022/04/06 01:10:30;;;;;;;48.95;31.75;;;;;;;;;;6269019;28;20079;-70
2022/04/06 01:13:32;;;;;;;46.15;29.77;;;;;;;;;;6268631;28;20194;-70
2022/04/06 01:16:33;;;;;;;47.05;29.77;;;;;;;;;;6268799;28;20049;-69
2022/04/06 01:19:38;;;;;;;47.78;30.77;;;;;;;;;;6268299;28;20060;-70
2022/04/06 01:22:41;;;;;;;43.72;29.98;;;;;;;;;;6269655;28;20048;-70
2022/04/06 01:25:42;;;;;;;46.63;30.13;;;;;;;;;;6270103;28;20489;-70
2022/04/06 01:28:44;;;;;;;50.15;31.90;;;;;;;;;;6269038;28;20504;-70
2022/04/06 01:31:46;;;;;;;45.97;29.95;;;;;;;;;;6270002;28;20194;-70
2022/04/06 01:34:49;;;;;;;47.70;30.90;;;;;;;;;;6267745;28;20183;-70
2022/04/06 01:37:52;;;;;;;51.47;31.60;;;;;;;;;;6270072;28;20049;-70
2022/04/06 01:40:54;;;;;;;45.47;32.05;;;;;;;;;;6268963;28;20439;-70
2022/04/06 01:43:56;;;;;;;48.53;32.33;;;;;;;;;;6269260;28;20143;-70
2022/04/06 01:46:58;;;;;;;46.67;31.40;;;;;;;;;;6264944;28;20433;-70
2022/04/06 01:53:20;;;;;;;48.13;32.00;;;;;;;;;;6264052;28;20045;-70
2022/04/06 01:56:21;;;;;;;49.22;31.88;;;;;;;;;;6268611;28;20369;-70
2022/04/06 01:59:23;;;;;;;48.47;32.00;;;;;;;;;;6268676;28;20095;-70
2022/04/06 02:02:27;;;;;;;47.58;32.47;;;;;;;;;;6269409;28;20045;-70
2022/04/06 02:05:33;;;;;;;50.40;32.75;;;;;;;;;;6268934;28;20128;-70
2022/04/06 02:08:36;;;;;;;52.85;32.53;;;;;;;;;;6265912;28;20128;-70
2022/04/06 02:11:38;;;;;;;47.13;31.17;;;;;;;;;;6293417;28;20063;-69
2022/04/06 02:14:39;;;;;;;47.50;31.10;;;;;;;;;;6276134;28;20106;-69
2022/04/06 02:17:42;;;;;;;47.90;32.72;;;;;;;;;;6249957;28;20051;-70
2022/04/06 02:20:44;;;;;;;47.83;31.83;;;;;;;;;;6267944;28;20135;-71
2022/04/06 02:23:47;;;;;;;51.72;32.15;;;;;;;;;;6268858;28;20124;-70
2022/04/06 02:26:48;;;;;;;49.17;32.08;;;;;;;;;;6267637;28;20118;-70
2022/04/06 02:29:50;;;;;;;50.28;31.95;;;;;;;;;;6267600;28;20076;-69
2022/04/06 02:32:52;;;;;;;49.80;33.13;;;;;;;;;;6267923;28;20179;-70
2022/04/06 02:35:53;;;;;;;45.78;31.15;;;;;;;;;;6266469;28;20059;-70
2022/04/06 02:38:56;;;;;;;54.35;32.72;;;;;;;;;;6267851;28;20056;-70
2022/04/06 02:41:58;;;;;;;50.28;33.22;;;;;;;;;;6266685;28;20105;-71
2022/04/06 02:44:59;;;;;;;47.47;32.17;;;;;;;;;;6267734;28;20045;-70
2022/04/06 02:48:01;;;;;;;49.33;31.92;;;;;;;;;;6267504;28;20167;-71
2022/04/06 02:51:02;;;;;;;49.47;32.92;;;;;;;;;;6266189;28;20037;-71
2022/04/06 02:54:06;;;;;;;51.78;33.65;;;;;;;;;;6268350;28;20127;-71
2022/04/06 02:57:07;;;;;;;48.20;32.07;;;;;;;;;;6266950;28;20143;-70
2022/04/06 03:00:10;;;;;;;51.65;32.83;;;;;;;;;;6268665;28;20128;-71
2022/04/06 03:03:12;;;;;;;55.28;33.30;;;;;;;;;;6261879;28;20049;-70
2022/04/06 03:06:13;;;;;;;52.47;32.97;;;;;;;;;;6265823;28;20390;-70
2022/04/06 03:09:16;;;;;;;49.97;33.65;;;;;;;;;;6267358;28;20045;-70
2022/04/06 03:12:18;;;;;;;50.63;33.58;;;;;;;;;;6267865;28;20052;-70
2022/04/06 03:15:19;;;;;;;50.70;33.20;;;;;;;;;;6266525;28;20052;-70
2022/04/06 03:18:21;;;;;;;50.90;33.50;;;;;;;;;;6265688;28;20052;-70
2022/04/06 03:21:23;;;;;;;55.00;34.17;;;;;;;;;;6264852;28;20045;-70
2022/04/06 03:24:26;;;;;;;55.30;35.38;;;;;;;;;;6265852;28;20061;-70
2022/04/06 03:27:27;;;;;;;52.13;34.10;;;;;;;;;;6267015;28;20088;-70
2022/04/06 03:30:29;;;;;;;53.38;33.70;;;;;;;;;;6265613;28;20481;-70
2022/04/06 03:33:30;;;;;;;51.03;34.05;;;;;;;;;;6267278;28;20049;-70
2022/04/06 03:36:32;;;;;;;50.85;34.85;;;;;;;;;;6266614;28;20057;-70
2022/04/06 03:39:35;;;;;;;51.70;35.05;;;;;;;;;;6267366;28;20056;-71
2022/04/06 03:42:37;;;;;;;50.60;34.57;;;;;;;;;;6265893;28;20064;-70
2022/04/06 03:45:39;;;;;;;58.65;37.13;;;;;;;;;;6267159;28;20505;-71
2022/04/06 03:48:40;;;;;;;56.78;34.97;;;;;;;;;;6267317;28;20056;-71
2022/04/06 03:51:42;;;;;;;55.22;34.50;;;;;;;;;;6267126;28;20147;-71
2022/04/06 03:54:46;;;;;;;53.75;35.20;;;;;;;;;;6268641;28;20074;-71
2022/04/06 03:57:48;;;;;;;57.90;37.22;;;;;;;;;;6271444;28;20052;-71
2022/04/06 04:00:49;;;;;;;54.17;36.30;;;;;;;;;;6269383;28;20049;-71
2022/04/06 04:03:51;;;;;;;55.90;36.28;;;;;;;;;;6270152;28;20128;-71
2022/04/06 04:06:53;;;;;;;52.53;35.40;;;;;;;;;;6270490;28;20061;-70
2022/04/06 04:09:56;;;;;;;56.25;37.50;;;;;;;;;;6271315;28;20140;-70
2022/04/06 04:12:57;;;;;;;58.80;36.33;;;;;;;;;;6271120;28;20141;-71
2022/04/06 04:15:59;;;;;;;52.00;35.15;;;;;;;;;;6271143;28;20053;-70
2022/04/06 04:19:02;;;;;;;57.65;34.80;;;;;;;;;;6271114;28;20072;-70
2022/04/06 04:22:04;;;;;;;52.53;34.58;;;;;;;;;;6271670;28;20107;-70
2022/04/06 04:25:08;;;;;;;57.38;35.88;;;;;;;;;;6268776;28;20071;-70
2022/04/06 04:28:10;;;;;;;59.53;35.10;;;;;;;;;;6268662;28;20040;-70
2022/04/06 04:31:11;;;;;;;59.00;35.53;;;;;;;;;;6270170;28;20497;-71
2022/04/06 04:34:13;;;;;;;53.70;34.67;;;;;;;;;;6270080;28;20056;-70
2022/04/06 04:37:15;;;;;;;56.42;36.53;;;;;;;;;;6268253;28;20526;-70
2022/04/06 04:40:20;;;;;;;51.17;34.58;;;;;;;;;;6268396;28;20053;-70
2022/04/06 04:43:22;;;;;;;51.95;34.67;;;;;;;;;;6269907;28;20072;-70
2022/04/06 04:46:24;;;;;;;51.97;34.03;;;;;;;;;;6270103;28;20830;-69
2022/04/06 04:49:26;;;;;;;53.13;34.25;;;;;;;;;;6270989;28;20183;-68
2022/04/06 04:52:28;;;;;;;54.78;34.17;;;;;;;;;;6270716;28;20045;-68
2022/04/06 04:55:31;;;;;;;55.13;34.78;;;;;;;;;;6270266;28;20516;-70
2022/04/06 04:58:32;;;;;;;47.95;33.05;;;;;;;;;;6270078;28;20053;-69
2022/04/06 05:01:34;;;;;;;55.35;35.00;;;;;;;;;;6271839;28;20119;-73
2022/04/06 05:04:35;;;;;;;52.75;33.08;;;;;;;;;;6271097;28;20397;-73
2022/04/06 05:07:38;;;;;;;51.55;33.78;;;;;;;;;;6294664;28;20068;-72
2022/04/06 05:10:41;;;;;;;54.50;33.17;;;;;;;;;;6294781;28;20186;-71
2022/04/06 05:13:42;;;;;;;51.50;33.38;;;;;;;;;;6295142;28;20132;-71
2022/04/06 05:16:44;;;;;;;45.45;30.83;;;;;;;;;;6293768;28;20052;-71
2022/04/06 05:19:45;;;;;;;51.28;33.42;;;;;;;;;;6295191;28;20052;-70
2022/04/06 05:22:47;;;;;;;49.30;32.22;;;;;;;;;;6276169;28;20066;-69
2022/04/06 05:25:50;;;;;;;53.63;34.47;;;;;;;;;;6293332;28;20057;-70
2022/04/06 05:28:52;;;;;;;51.22;32.63;;;;;;;;;;6294162;28;20075;-70
2022/04/06 05:31:53;;;;;;;59.10;33.97;;;;;;;;;;6294510;28;21890;-70
2022/04/06 05:34:55;;;;;;;50.35;33.72;;;;;;;;;;6293551;28;20537;-70
2022/04/06 05:37:57;;;;;;;56.58;33.97;;;;;;;;;;6292278;28;20055;-70
2022/04/06 05:41:00;;;;;;;49.63;33.13;;;;;;;;;;6293100;28;20049;-70
2022/04/06 05:44:02;;;;;;;54.05;34.50;;;;;;;;;;6294524;28;20074;-70
2022/04/06 05:47:04;;;;;;;51.83;32.85;;;;;;;;;;6293304;28;20048;-70
2022/04/06 05:50:08;;;;;;;47.80;32.38;;;;;;;;;;6294153;28;20044;-70
2022/04/06 05:53:09;;;;;;;57.25;32.97;;;;;;;;;;6290985;28;20086;-70
2022/04/06 05:56:13;;;;;;;49.78;32.53;;;;;;;;;;6294054;28;20060;-70
2022/04/06 05:59:14;;;;;;;51.58;33.72;;;;;;;;;;6293210;28;20504;-70
2022/04/06 06:02:16;;;;;;;55.90;35.08;;;;;;;;;;6293582;28;20213;-70
2022/04/06 06:05:18;;;;;;;51.58;34.40;;;;;;;;;;6293299;28;20048;-70
2022/04/06 06:08:19;;;;;;;54.85;34.13;;;;;;;;;;6293397;28;20170;-70
2022/04/06 06:11:22;;;;;;;49.90;31.17;;;;;;;;;;6292934;28;20071;-70
2022/04/06 06:14:24;;;;;;;50.00;31.88;;;;;;;;;;6290614;28;20466;-69
2022/04/06 06:17:25;;;;;;;50.63;32.95;;;;;;;;;;6291429;28;20393;-69
2022/04/06 06:20:28;;;;;;;54.45;34.83;;;;;;;;;;6292917;28;20123;-69
2022/04/06 06:23:29;;;;;;;46.70;31.40;;;;;;;;;;6292209;28;20076;-70
2022/04/06 06:26:32;;;;;;;53.72;32.95;;;;;;;;;;6275941;28;20037;-70
2022/04/06 06:29:34;;;;;;;51.80;33.50;;;;;;;;;;6291326;28;20233;-70
2022/04/06 06:32:36;;;;;;;48.83;31.95;;;;;;;;;;6292461;28;20102;-70
2022/04/06 06:35:37;;;;;;;49.40;31.67;;;;;;;;;;6290604;28;20094;-70
2022/04/06 06:38:39;;;;;;;47.03;32.17;;;;;;;;;;6291297;28;20071;-70
2022/04/06 06:41:43;;;;;;;46.83;30.30;;;;;;;;;;6291929;28;20511;-69
2022/04/06 06:44:44;;;;;;;47.90;29.95;;;;;;;;;;6291448;28;20068;-69
2022/04/06 06:47:46;;;;;;;43.10;30.10;;;;;;;;;;6289603;28;20189;-70
2022/04/06 06:50:48;;;;;;;46.95;28.77;;;;;;;;;;6291241;28;20057;-69
2022/04/06 06:53:50;;;;;;;38.85;26.20;;;;;;;;;;6292455;28;20056;-68
2022/04/06 06:56:53;;;;;;;40.22;27.42;;;;;;;;;;6291789;28;20494;-69
2022/04/06 06:59:54;;;;;;;42.20;25.97;;;;;;;;;;6292285;28;20064;-69
2022/04/06 07:02:56;;;;;;;36.85;25.30;;;;;;;;;;6271845;28;20053;-70
2022/04/06 07:05:57;;;;;;;38.90;24.63;;;;;;;;;;6292462;28;20090;-69
2022/04/06 07:08:59;;;;;;;38.47;26.17;;;;;;;;;;6291796;28;20594;-70
2022/04/06 07:12:02;;;;;;;37.45;24.90;;;;;;;;;;6292386;28;20141;-70
2022/04/06 07:15:05;;;;;;;33.80;24.33;;;;;;;;;;6291649;28;20124;-70
2022/04/06 07:18:08;;;;;;;35.83;23.75;;;;;;;;;;6280863;28;20056;-69
2022/04/06 07:21:09;;;;;;;35.13;23.50;;;;;;;;;;6287820;28;20056;-69
2022/04/06 07:24:11;;;;;;;34.45;24.38;;;;;;;;;;6292475;28;20067;-69
2022/04/06 07:27:15;;;;;;;35.55;24.63;;;;;;;;;;6275079;28;20404;-70
2022/04/06 07:30:17;;;;;;;33.72;21.95;;;;;;;;;;6294717;28;20048;-70
2022/04/06 07:33:18;;;;;;;33.55;22.05;;;;;;;;;;6296479;28;20075;-70
2022/04/06 07:36:20;;;;;;;33.75;22.23;;;;;;;;;;6297276;28;20063;-70
2022/04/06 07:39:22;;;;;;;32.38;21.98;;;;;;;;;;6296765;28;20056;-69
2022/04/06 07:42:25;;;;;;;34.20;21.83;;;;;;;;;;6296916;28;20044;-70
2022/04/06 07:45:26;;;;;;;32.47;21.17;;;;;;;;;;6295977;28;20041;-70
2022/04/06 07:48:30;;;;;;;29.08;20.50;;;;;;;;;;6296993;28;20126;-70
2022/04/06 07:51:31;;;;;;;32.13;21.63;;;;;;;;;;6295849;28;20385;-70
2022/04/06 07:54:33;;;;;;;31.70;20.98;;;;;;;;;;6296727;28;20157;-70
2022/04/06 07:57:37;;;;;;;31.92;19.63;;;;;;;;;;6296318;28;20052;-69
2022/04/06 08:00:39;;;;;;;29.95;21.58;;;;;;;;;;6294890;28;20056;-70
2022/04/06 08:03:40;;;;;;;33.67;21.75;;;;;;;;;;6296813;28;20068;-70
2022/04/06 08:06:42;;;;;;;28.85;19.80;;;;;;;;;;6295803;28;20047;-70
2022/04/06 08:09:43;;;;;;;30.73;20.63;;;;;;;;;;6296113;28;20049;-71
2022/04/06 08:12:47;;;;;;;28.33;20.77;;;;;;;;;;6295018;28;20665;-69
2022/04/06 08:15:48;;;;;;;30.27;20.05;;;;;;;;;;6296046;28;20051;-69
2022/04/06 08:18:50;;;;;;;24.10;17.80;;;;;;;;;;6292922;28;20059;-69
2022/04/06 08:21:52;;;;;;;29.80;19.60;;;;;;;;;;6296018;28;20064;-69
2022/04/06 08:24:54;;;;;;;29.10;20.80;;;;;;;;;;6295331;28;20045;-69
2022/04/06 08:27:56;;;;;;;30.23;20.25;;;;;;;;;;6295763;28;20053;-69
2022/04/06 08:30:58;;;;;;;31.17;20.97;;;;;;;;;;6295295;28;20533;-70
2022/04/06 08:34:00;;;;;;;25.95;19.38;;;;;;;;;;6295704;28;20048;-70
2022/04/06 08:37:02;;;;;;;24.58;16.60;;;;;;;;;;6295333;28;20110;-69
2022/04/06 08:40:05;;;;;;;21.40;15.82;;;;;;;;;;6294695;28;20408;-70
2022/04/06 08:43:08;;;;;;;21.57;16.30;;;;;;;;;;6294655;28;20056;-69
2022/04/06 08:46:11;;;;;;;23.55;18.05;;;;;;;;;;6295091;28;20137;-69
2022/04/06 08:49:13;;;;;;;28.08;18.65;;;;;;;;;;6294991;28;20186;-69
2022/04/06 08:52:17;;;;;;;27.92;18.40;;;;;;;;;;6294933;28;20059;-69
2022/04/06 08:55:19;;;;;;;24.08;18.48;;;;;;;;;;6277823;28;20059;-69
2022/04/06 08:58:22;;;;;;;22.45;16.73;;;;;;;;;;6295452;28;20059;-69
2022/04/06 09:01:23;;;;;;;25.85;16.90;;;;;;;;;;6288415;28;20515;-72
2022/04/06 09:04:26;;;;;;;24.05;16.52;;;;;;;;;;6283185;28;20396;-70
2022/04/06 09:07:28;;;;;;;27.02;17.70;;;;;;;;;;6294515;28;20059;-69
2022/04/06 09:10:33;;;;;;;24.88;18.15;;;;;;;;;;6279317;28;20546;-69
2022/04/06 09:13:35;;;;;;;28.60;18.25;;;;;;;;;;6293033;28;20408;-69
2022/04/06 09:16:37;;;;;;;26.50;18.38;;;;;;;;;;6294615;28;20109;-69
2022/04/06 09:19:46;;;;;;;24.45;17.15;;;;;;;;;;6251560;28;20045;-69
2022/04/06 09:22:48;;;;;;;25.42;18.00;;;;;;;;;;6268517;28;20053;-70
2022/04/06 09:25:50;;;;;;;27.58;18.73;;;;;;;;;;6268784;28;20075;-73
2022/04/06 09:28:53;;;;;;;28.52;20.88;;;;;;;;;;6269396;28;20048;-73
2022/04/06 09:31:55;;;;;;;27.52;19.73;;;;;;;;;;6269651;28;20445;-72
2022/04/06 09:34:56;;;;;;;30.52;21.73;;;;;;;;;;6267187;28;20179;-69
2022/04/06 09:38:14;;;;;;;26.23;18.42;;;;;;;;;;6267854;28;20049;-70
2022/04/06 09:41:17;;;;;;;25.63;18.63;;;;;;;;;;6268724;28;20053;-70
2022/04/06 09:47:43;;;;;;;24.98;18.88;;;;;;;;;;6268495;28;20490;-70
2022/04/06 09:50:54;;;;;;;25.15;18.92;;;;;;;;;;6267274;28;20053;-70
2022/04/06 09:53:55;;;;;;;24.67;18.23;;;;;;;;;;6266945;28;20573;-69
2022/04/06 09:56:57;;;;;;;24.20;18.98;;;;;;;;;;6268425;28;20519;-70
2022/04/06 10:00:02;;;;;;;25.95;19.25;;;;;;;;;;6268486;28;20045;-69
2022/04/06 10:03:06;;;;;;;24.67;20.98;;;;;;;;;;6268537;28;20653;-70
2022/04/06 10:06:08;;;;;;;24.98;20.42;;;;;;;;;;6269138;28;20045;-70
2022/04/06 10:09:11;;;;;;;32.22;21.25;;;;;;;;;;6268226;28;20053;-70
2022/04/06 10:12:14;;;;;;;28.20;21.90;;;;;;;;;;6267804;28;20052;-71
2022/04/06 10:15:18;;;;;;;28.10;21.83;;;;;;;;;;6268106;28;20049;-70
2022/04/06 10:18:20;;;;;;;25.27;21.00;;;;;;;;;;6266591;28;20053;-70
2022/04/06 10:21:37;;;;;;;28.33;21.58;;;;;;;;;;6267653;28;20179;-70
2022/04/06 10:24:46;;;;;;;24.20;19.20;;;;;;;;;;6266639;28;20052;-70
2022/04/06 10:27:52;;;;;;;27.55;20.52;;;;;;;;;;6266135;28;20080;-70
2022/04/06 10:31:18;;;;;;;28.00;21.05;;;;;;;;;;6266540;28;20045;-70
2022/04/06 10:34:22;;;;;;;26.25;19.42;;;;;;;;;;6267152;28;20059;-70
2022/04/06 10:37:24;;;;;;;53.67;37.17;;;;;;;;;;6265060;28;20049;-73
2022/04/06 10:40:26;;;;;;;29.02;22.67;;;;;;;;;;6267720;28;20417;-71
2022/04/06 10:43:50;;;;;;;38.87;28.93;;;;;;;;;;6267066;28;20149;-69
2022/04/06 10:46:53;;;;;;;68.05;51.25;;;;;;;;;;6266387;28;20120;-72
2022/04/06 10:50:09;;;;;;;;;;;;;;;;;;6267796;28;20060;-71
2022/04/06 10:53:28;;;;;;;46.85;34.55;;;;;;;;;;6263964;28;20047;-72
2022/04/06 10:56:52;;;;;;;31.10;23.65;;;;;;;;;;6266594;28;20103;-71
2022/04/06 11:00:14;;;;;;;29.05;18.85;;;;;;;;;;6291601;28;20121;-70
2022/04/06 11:03:18;;;;;;;26.67;19.83;;;;;;;;;;6288963;28;20116;-71
2022/04/06 11:06:56;;;;;;;26.08;20.23;;;;;;;;;;6294559;28;20048;-72
2022/04/06 11:10:10;;;;;;;25.70;19.63;;;;;;;;;;6294120;28;20040;-71
2022/04/06 11:13:13;;;;;;;24.75;19.25;;;;;;;;;;6294915;28;20132;-71
2022/04/06 11:16:30;;;;;;;;;;;;;;;;;;6296427;28;20121;-68
2022/04/06 11:19:33;;;;;;;27.05;20.27;;;;;;;;;;6293746;28;19928;-69
2022/04/06 11:22:34;;;;;;;25.52;19.77;;;;;;;;;;6293427;28;20044;-69
2022/04/06 11:25:36;;;;;;;46.22;33.58;;;;;;;;;;6294684;28;20102;-72
2022/04/06 11:28:38;;;;;;;36.40;26.45;;;;;;;;;;6292791;28;20060;-72
2022/04/06 11:31:56;;;;;;;57.25;41.15;;;;;;;;;;6291089;28;20630;-72
2022/04/06 11:35:04;;;;;;;29.98;21.45;;;;;;;;;;6291131;28;20049;-69
2022/04/06 11:38:07;;;;;;;29.55;20.85;;;;;;;;;;6293263;28;20577;-70
2022/04/06 11:41:10;;;;;;;31.30;20.42;;;;;;;;;;6292862;28;20052;-70
2022/04/06 11:44:18;;;;;;;26.60;20.27;;;;;;;;;;6290327;28;20045;-70
2022/04/06 11:47:30;;;;;;;28.90;20.90;;;;;;;;;;6290551;28;20404;-70
2022/04/06 11:50:36;;;;;;;26.55;21.25;;;;;;;;;;6290285;28;20051;-70
2022/04/06 11:53:38;;;;;;;28.02;19.73;;;;;;;;;;6291910;28;20488;-70
2022/04/06 11:56:39;;;;;;;27.95;20.27;;;;;;;;;;6294977;28;20051;-70
2022/04/06 11:59:52;;;;;;;27.40;21.40;;;;;;;;;;6294715;28;20403;-70
2022/04/06 12:02:55;;;;;;;26.40;22.08;;;;;;;;;;6295177;28;20083;-70
2022/04/06 12:05:59;;;;;;;25.73;21.10;;;;;;;;;;6295713;28;20411;-70
2022/04/06 12:09:01;;;;;;;25.45;19.38;;;;;;;;;;6294958;28;20128;-70
2022/04/06 12:12:07;;;;;;;32.73;21.13;;;;;;;;;;6294788;28;20121;-70
2022/04/06 12:15:10;;;;;;;26.45;20.40;;;;;;;;;;6292988;28;20067;-70
2022/04/06 12:18:12;;;;;;;23.95;19.70;;;;;;;;;;6294505;28;20048;-70
2022/04/06 12:21:22;;;;;;;23.75;19.88;;;;;;;;;;6294894;28;20054;-69
2022/04/06 12:24:36;;;;;;;23.08;19.48;;;;;;;;;;6293554;28;20048;-70
2022/04/06 12:27:38;;;;;;;24.05;19.80;;;;;;;;;;6292495;28;20041;-71
2022/04/06 12:30:57;;;;;;;23.55;18.95;;;;;;;;;;6292070;28;20057;-72
2022/04/06 12:33:58;;;;;;;22.33;18.30;;;;;;;;;;6293443;28;20056;-71
2022/04/06 12:37:29;;;;;;;24.25;18.40;;;;;;;;;;6293788;28;20068;-70
2022/04/06 12:40:25;;;;;;;26.48;18.92;;;;;;;;;;6293906;28;20067;-71
2022/04/06 12:43:26;;;;;;;25.00;18.63;;;;;;;;;;6292474;28;20052;-72
2022/04/06 12:46:42;;;;;;;28.23;18.73;;;;;;;;;;6295047;28;20506;-69
2022/04/06 12:49:43;;;;;;;25.70;19.38;;;;;;;;;;6291419;28;20503;-69
2022/04/06 12:52:47;;;;;;;24.42;19.00;;;;;;;;;;6293286;28;20509;-69
2022/04/06 12:56:11;;;;;;;27.13;19.83;;;;;;;;;;6295573;28;20094;-69
2022/04/06 12:59:13;;;;;;;23.98;18.88;;;;;;;;;;6292226;28;20523;-69
2022/04/06 13:02:19;;;;;;;23.30;18.05;;;;;;;;;;6293912;28;20273;-69
2022/04/06 13:05:22;;;;;;;23.60;18.83;;;;;;;;;;6290338;28;20048;-69
2022/04/06 13:08:25;;;;;;;;;;;;;;;;;;6293361;28;20556;-69
2022/04/06 13:11:26;;;;;;;24.17;19.67;;;;;;;;;;6295558;28;20872;-69
2022/04/06 13:14:28;;;;;;;25.13;18.85;;;;;;;;;;6295677;28;20466;-69
2022/04/06 13:17:30;;;;;;;26.50;19.42;;;;;;;;;;6293866;28;20048;-69
2022/04/06 13:20:31;;;;;;;25.35;19.08;;;;;;;;;;6294678;28;20101;-71
2022/04/06 13:23:34;;;;;;;26.33;20.35;;;;;;;;;;6293279;28;20045;-69
2022/04/06 13:26:36;;;;;;;28.02;18.50;;;;;;;;;;6293300;28;20055;-71
2022/04/06 13:29:38;;;;;;;24.10;18.70;;;;;;;;;;6291743;28;20044;-69
2022/04/06 13:32:39;;;;;;;25.90;18.80;;;;;;;;;;6292220;28;20145;-70
2022/04/06 13:35:41;;;;;;;27.60;20.75;;;;;;;;;;6292047;28;20048;-68
2022/04/06 13:38:44;;;;;;;28.02;19.75;;;;;;;;;;6292836;28;20056;-68
2022/04/06 13:41:48;;;;;;;;;;;;;;;;;;6293655;28;20053;-69
2022/04/06 13:44:49;;;;;;;26.50;20.67;;;;;;;;;;6291974;28;19927;-69
2022/04/06 13:47:51;;;;;;;26.63;20.75;;;;;;;;;;6292825;28;20040;-69
2022/04/06 13:50:52;;;;;;;25.40;20.08;;;;;;;;;;6292733;28;20191;-69
2022/04/06 13:53:55;;;;;;;25.48;20.42;;;;;;;;;;6292989;28;20079;-70
2022/04/06 13:56:57;;;;;;;23.10;19.23;;;;;;;;;;6292323;28;20053;-70
2022/04/06 13:59:59;;;;;;;22.73;18.65;;;;;;;;;;6291455;28;20431;-69
2022/04/06 14:03:01;;;;;;;26.20;19.88;;;;;;;;;;6292369;28;20214;-69
2022/04/06 14:06:02;;;;;;;28.10;19.73;;;;;;;;;;6292440;28;20400;-70
2022/04/06 14:09:07;;;;;;;27.17;20.42;;;;;;;;;;6291503;28;20040;-69
2022/04/06 14:12:14;;;;;;;26.15;20.05;;;;;;;;;;6289285;28;20269;-70
2022/04/06 14:15:16;;;;;;;26.00;19.33;;;;;;;;;;6291676;28;20040;-70
2022/04/06 14:18:19;;;;;;;25.70;20.45;;;;;;;;;;6291049;28;20093;-71
2022/04/06 14:21:21;;;;;;;24.98;20.48;;;;;;;;;;6292688;28;20060;-70
2022/04/06 14:24:24;;;;;;;23.30;19.30;;;;;;;;;;6291344;28;20098;-70
2022/04/06 14:27:26;;;;;;;24.95;20.50;;;;;;;;;;6290336;28;20507;-70
2022/04/06 14:30:28;;;;;;;25.77;20.35;;;;;;;;;;6290958;28;20135;-70
2022/04/06 14:33:29;;;;;;;27.63;20.98;;;;;;;;;;6289670;28;20051;-74
2022/04/06 14:36:31;;;;;;;56.28;41.38;;;;;;;;;;6290540;28;20178;-73
2022/04/06 14:39:34;;;;;;;28.50;24.40;;;;;;;;;;6290934;28;20135;-70
2022/04/06 14:42:36;;;;;;;25.63;21.52;;;;;;;;;;6291730;28;20627;-69
2022/04/06 14:45:38;;;;;;;26.63;22.43;;;;;;;;;;6290274;28;20149;-69
2022/04/06 14:48:39;;;;;;;26.08;21.65;;;;;;;;;;6289256;28;20057;-70
2022/04/06 14:51:41;;;;;;;27.67;22.13;;;;;;;;;;6291556;28;20048;-69
2022/04/06 14:54:45;;;;;;;31.40;23.30;;;;;;;;;;6290397;28;20049;-69
2022/04/06 14:57:47;;;;;;;27.67;21.95;;;;;;;;;;6291059;28;20048;-69
2022/04/06 15:00:49;;;;;;;28.25;22.98;;;;;;;;;;6289922;28;20354;-69
2022/04/06 15:03:51;;;;;;;29.52;22.48;;;;;;;;;;6291563;28;20462;-69
2022/04/06 15:06:52;;;;;;;28.48;22.17;;;;;;;;;;6290449;28;20193;-70
2022/04/06 15:09:55;;;;;;;28.27;23.60;;;;;;;;;;6289204;28;20542;-69
2022/04/06 15:12:59;;;;;;;29.90;23.15;;;;;;;;;;6288547;28;20041;-68
2022/04/06 15:16:01;;;;;;;31.77;21.90;;;;;;;;;;6291977;28;20048;-69
2022/04/06 15:19:02;;;;;;;32.42;23.58;;;;;;;;;;6289799;28;20412;-69
2022/04/06 15:22:04;;;;;;;33.53;23.65;;;;;;;;;;6291381;28;20080;-69
2022/04/06 15:25:08;;;;;;;32.92;23.70;;;;;;;;;;6289861;28;20098;-68
2022/04/06 15:28:09;;;;;;;32.10;23.13;;;;;;;;;;6288819;28;20613;-71
2022/04/06 15:31:11;;;;;;;28.52;21.83;;;;;;;;;;6289232;28;20190;-69
2022/04/06 15:37:18;;;;;;;33.30;23.95;;;;;;;;;;6287766;28;20368;-69
2022/04/06 15:37:34;;;;;;;32.67;24.45;;;;;;;;;;6289715;28;20541;-69
2022/04/06 15:40:37;;;;;;;29.70;22.75;;;;;;;;;;6293218;28;20114;-72
2022/04/06 15:43:39;;;;;;;28.75;21.23;;;;;;;;;;6287706;28;20055;-69
2022/04/06 15:46:41;;;;;;;31.63;22.48;;;;;;;;;;6295935;28;20189;-70
2022/04/06 15:49:42;;;;;;;29.42;22.60;;;;;;;;;;6292208;28;20044;-69
2022/04/06 15:52:44;;;;;;;32.70;23.02;;;;;;;;;;6297478;28;20189;-68
2022/04/06 15:55:47;;;;;;;30.15;22.63;;;;;;;;;;6295523;28;20086;-69
2022/04/06 15:58:48;;;;;;;31.13;22.40;;;;;;;;;;6295356;28;20064;-70
2022/04/06 16:01:50;;;;;;;35.30;24.13;;;;;;;;;;6294450;28;20489;-70
2022/04/06 16:04:51;;;;;;;31.80;21.95;;;;;;;;;;6294490;28;20563;-69
2022/04/06 16:07:53;;;;;;;33.38;24.90;;;;;;;;;;6295147;28;20127;-69
2022/04/06 16:10:56;;;;;;;28.60;23.38;;;;;;;;;;6294656;28;20140;-70
2022/04/06 16:13:58;;;;;;;;;;;;;;;;;;6296291;28;20453;-69
2022/04/06 16:16:59;;;;;;;31.05;24.05;;;;;;;;;;6295749;28;19927;-70
2022/04/06 16:20:01;;;;;;;32.90;24.27;;;;;;;;;;6295238;28;20052;-69
2022/04/06 16:23:03;;;;;;;28.58;22.23;;;;;;;;;;6293579;28;20050;-69
2022/04/06 16:26:06;;;;;;;31.63;21.98;;;;;;;;;;6293712;28;20090;-69
2022/04/06 16:29:08;;;;;;;31.02;22.27;;;;;;;;;;6292757;28;20044;-70
2022/04/06 16:32:10;;;;;;;28.63;22.75;;;;;;;;;;6293359;28;20109;-69
2022/04/06 16:35:12;;;;;;;27.83;22.33;;;;;;;;;;6292801;28;20098;-69
2022/04/06 16:38:14;;;;;;;29.50;21.15;;;;;;;;;;6293029;28;20056;-69
2022/04/06 16:41:18;;;;;;;30.45;22.80;;;;;;;;;;6293458;28;20048;-69
2022/04/06 16:44:19;;;;;;;;;;;;;;;;;;6293486;28;20656;-69
2022/04/06 16:47:21;;;;;;;27.75;21.55;;;;;;;;;;6292836;28;19920;-69
2022/04/06 16:53:50;;;;;;;30.13;22.70;;;;;;;;;;6216863;28;20417;-73
2022/04/06 16:56:53;;;;;;;30.20;23.67;;;;;;;;;;6214170;28;20062;-75
2022/04/06 16:59:55;;;;;;;28.45;21.27;;;;;;;;;;6216504;28;20046;-70
2022/04/06 17:02:56;;;;;;;31.40;23.30;;;;;;;;;;6214736;28;20170;-71
2022/04/06 17:05:59;;;;;;;34.45;22.95;;;;;;;;;;6216795;28;20489;-70
2022/04/06 17:09:00;;;;;;;34.60;23.02;;;;;;;;;;6214472;28;20418;-71
2022/04/06 17:12:05;;;;;;;26.90;21.42;;;;;;;;;;6212034;28;20132;-70
2022/04/06 17:15:07;;;;;;;33.55;21.50;;;;;;;;;;6212067;28;20158;-71
2022/04/06 17:18:10;;;;;;;34.13;21.80;;;;;;;;;;6213768;28;20054;-71
2022/04/06 17:21:12;;;;;;;28.98;21.35;;;;;;;;;;6212223;28;20068;-70
2022/04/06 17:24:15;;;;;;;32.38;21.23;;;;;;;;;;6216307;28;20044;-71
2022/04/06 17:27:18;;;;;;;33.55;22.13;;;;;;;;;;6212941;28;20069;-71
2022/04/06 17:30:21;;;;;;;33.38;23.15;;;;;;;;;;6280201;28;20144;-70
2022/04/06 17:33:26;;;;;;;32.28;24.92;;;;;;;;;;6292048;28;20194;-71
2022/04/06 17:36:28;;;;;;;35.08;24.00;;;;;;;;;;6293950;28;20055;-71
2022/04/06 17:39:30;;;;;;;32.97;24.02;;;;;;;;;;6292158;28;20143;-70
2022/04/06 17:42:34;;;;;;;32.97;24.30;;;;;;;;;;6294286;28;20049;-70
2022/04/06 17:45:36;;;;;;;35.97;24.77;;;;;;;;;;6293288;28;20044;-71
2022/04/06 17:48:38;;;;;;;32.92;23.75;;;;;;;;;;6291747;28;20361;-70
2022/04/06 17:51:40;;;;;;;33.20;23.85;;;;;;;;;;6292741;28;20412;-69
2022/04/06 17:54:41;;;;;;;32.45;24.15;;;;;;;;;;6293901;28;20044;-69
2022/04/06 17:57:44;;;;;;;36.47;24.90;;;;;;;;;;6293083;28;20040;-72